ベロオリゾンテ の空港の天気 - METARとTAF

タンクレド・ネヴェス国際空港 ( SBCF / CNF ) - ブラジル ミナスジェライス州ベロオリゾンテ
飛行場実況気象(Metar)
観測時間10/22 09:00 BRT (10/22 12:00 UTC)
風向・風速東 6m/s
視程10km以上
天気現象
全天の4割程度の雲 雲底高度 580m
全天の8割程度の雲 雲底高度 2130m
気温21℃
湿度78%
気圧1021hPa
METARSBCF 221200Z 08011KT 9999 SCT019 BKN070 21/17 Q1021
過去の天気等 Google飛行場航空写真 Wunderground天気予報

過去48時間のMETAR

飛行場予報(TAF)
発表時間: 10/22 05:00 BRT (10/22 08:00 UTC)
予報対象時間: 22日9時 BRT ~ 23日9時 BRT
風向・風速東 4m/s
視程8000m
全天の4割程度の雲 雲底高度 1070m
22日10時 BRT ~ 22日12時 BRT に徐々に
天気現象しゅう雨
全天の8割程度の雲 雲底高度 1070m
少しの塔状積雲 雲底高度 1370m
22日13時 BRT ~ 22日17時 BRT に一時的に
天気現象雷雨
全天の8割程度の雲 雲底高度 1070m
少しの積乱雲 雲底高度 1370m
22日18時 BRT から 確率 30% で
天気現象周辺で雷
全天の4割程度の雲 雲底高度 1070m
少しの積乱雲 雲底高度 1370m
23日0時 BRT ~ 23日2時 BRT に徐々に
視程10km以上
なし
23日5時 BRT から 確率 30% で
視程4000m
天気現象もや
全天の8割程度の雲 雲底高度 370m
TAF SBCF 220800Z 2212/2312 10008KT 8000 SCT035 TX25/2217Z TN17/2308Z
BECMG 2213/2215 SHRA BKN035 FEW045TCU
TEMPO 2216/2220 TSRA BKN035 FEW045CB
PROB30 2221/2224 VCTS SCT035 FEW045CB
BECMG 2303/2305 CAVOK
PROB30 2308/2311 4000 BR BKN012 RMK PGH